Time,TemperatureF,DewpointF,PressureIn,WindDirection,WindDirectionDegrees,WindSpeedMPH,WindSpeedGustMPH,Humidity,HourlyPrecipIn,Conditions,Clouds,dailyrainin,SoftwareType,DateUTC
2013-01-04 00:00:00,8.6,4.0,29.52,SW,225,0.0,4.4,81,0.00,,---,0.00,VWS V13.01,2013-01-04 06:00:00,
2013-01-04 00:05:00,8.6,4.0,29.52,SW,225,0.0,1.0,81,0.00,,---,0.00,VWS V13.01,2013-01-04 06:05:00,
2013-01-04 00:10:00,8.7,4.1,29.52,SW,225,12.8,13.8,81,0.00,,---,0.00,VWS V13.01,2013-01-04 06:10:00,
2013-01-04 00:15:00,8.7,4.1,29.52,SW,225,0.0,13.4,81,0.00,,---,0.00,VWS V13.01,2013-01-04 06:15:00,
2013-01-04 00:21:00,8.9,4.5,29.52,SW,225,0.0,1.0,82,0.00,,---,0.00,VWS V13.01,2013-01-04 06:21:00,
2013-01-04 00:26:00,8.9,4.5,29.51,South,180,0.0,1.0,82,0.00,,---,0.00,VWS V13.01,2013-01-04 06:26:00,
2013-01-04 00:31:00,8.9,4.5,29.51,SW,225,0.0,1.0,82,0.00,,---,0.00,VWS V13.01,2013-01-04 06:31:00,
2013-01-04 00:36:00,8.9,4.5,29.51,SW,225,5.8,6.8,82,0.00,,---,0.00,VWS V13.01,2013-01-04 06:36:00,
2013-01-04 00:41:00,9.1,4.7,29.51,SW,225,7.6,8.6,82,0.00,,---,0.00,VWS V13.01,2013-01-04 06:41:00,
2013-01-04 00:46:00,9.1,4.7,29.51,SW,225,0.0,1.0,82,0.00,,---,0.00,VWS V13.01,2013-01-04 06:46:00,
2013-01-04 00:51:00,9.1,4.7,29.51,SW,225,0.0,1.0,82,0.00,,---,0.00,VWS V13.01,2013-01-04 06:51:00,
2013-01-04 00:56:00,8.9,4.5,29.51,SW,225,0.0,1.0,82,0.00,,---,0.00,VWS V13.01,2013-01-04 06:56:00,
2013-01-04 01:01:00,9.1,4.7,29.51,SSW,202,0.0,5.8,82,0.00,,---,0.00,VWS V13.01,2013-01-04 07:01:00,
2013-01-04 01:06:00,9.1,4.7,29.50,SSW,202,0.0,1.0,82,0.00,,---,0.00,VWS V13.01,2013-01-04 07:06:00,
2013-01-04 01:11:00,9.1,4.7,29.50,SSW,202,15.2,16.2,82,0.00,,---,0.00,VWS V13.01,2013-01-04 07:11:00,
2013-01-04 01:16:00,9.3,4.9,29.49,SSW,202,3.0,4.0,82,0.00,,---,0.00,VWS V13.01,2013-01-04 07:16:00,
2013-01-04 01:21:00,9.3,4.9,29.49,SSW,202,0.0,1.0,82,0.00,,---,0.00,VWS V13.01,2013-01-04 07:21:00,
2013-01-04 01:26:00,9.5,5.1,29.49,SSW,202,9.2,10.2,82,0.00,,---,0.00,VWS V13.01,2013-01-04 07:26:00,
2013-01-04 01:31:00,9.5,5.1,29.49,SSW,202,0.0,1.0,82,0.00,,---,0.00,VWS V13.01,2013-01-04 07:31:00,
2013-01-04 01:36:00,9.6,5.2,29.49,SSW,202,4.0,8.0,82,0.00,,---,0.00,VWS V13.01,2013-01-04 07:36:00,
2013-01-04 01:41:00,9.6,5.2,29.49,SSW,202,10.2,11.2,82,0.00,,---,0.00,VWS V13.01,2013-01-04 07:41:00,
2013-01-04 01:46:00,9.6,5.2,29.49,SW,225,0.0,1.0,82,0.00,,---,0.00,VWS V13.01,2013-01-04 07:46:00,
2013-01-04 01:51:00,10.0,5.9,29.49,SW,225,7.6,8.6,83,0.00,,---,0.00,VWS V13.01,2013-01-04 07:51:00,
2013-01-04 01:56:00,10.2,6.1,29.49,SW,225,0.0,9.4,83,0.00,,---,0.00,VWS V13.01,2013-01-04 07:56:00,
2013-01-04 02:01:00,10.5,6.4,29.49,SW,225,8.8,9.8,83,0.00,,---,0.00,VWS V13.01,2013-01-04 08:01:00,
2013-01-04 02:06:00,10.5,6.4,29.49,SW,225,7.0,8.0,83,0.00,,---,0.00,VWS V13.01,2013-01-04 08:06:00,
2013-01-04 02:12:00,10.5,6.4,29.49,SSW,202,0.0,1.0,83,0.00,,---,0.00,VWS V13.01,2013-01-04 08:12:00,
2013-01-04 02:17:00,10.7,6.6,29.49,SSW,202,10.6,11.6,83,0.00,,---,0.00,VWS V13.01,2013-01-04 08:17:00,
2013-01-04 02:22:00,10.9,6.8,29.49,SSW,202,0.0,1.0,83,0.00,,---,0.00,VWS V13.01,2013-01-04 08:22:00,
2013-01-04 02:27:00,10.9,6.8,29.49,SSW,202,0.0,7.2,83,0.00,,---,0.00,VWS V13.01,2013-01-04 08:27:00,
2013-01-04 02:32:00,11.1,7.0,29.49,South,180,0.0,1.0,83,0.00,,---,0.00,VWS V13.01,2013-01-04 08:32:00,
2013-01-04 02:37:00,11.1,7.0,29.49,South,180,0.0,1.0,83,0.00,,---,0.00,VWS V13.01,2013-01-04 08:37:00,
2013-01-04 02:42:00,11.1,7.0,29.48,SSW,202,12.8,13.8,83,0.00,,---,0.00,VWS V13.01,2013-01-04 08:42:00,
2013-01-04 02:48:00,11.4,7.2,29.48,SW,225,11.6,12.6,83,0.00,,---,0.00,VWS V13.01,2013-01-04 08:48:00,
2013-01-04 02:53:00,11.8,7.6,29.48,SW,225,0.0,7.6,83,0.00,,---,0.00,VWS V13.01,2013-01-04 08:53:00,
2013-01-04 02:58:00,12.0,8.1,29.48,SW,225,4.8,7.2,84,0.00,,---,0.00,VWS V13.01,2013-01-04 08:58:00,
2013-01-04 03:03:00,12.0,8.1,29.48,WSW,248,4.4,5.4,84,0.00,,---,0.00,VWS V13.01,2013-01-04 09:03:00,
2013-01-04 03:08:00,12.3,8.4,29.48,SW,225,5.8,12.0,84,0.00,,---,0.00,VWS V13.01,2013-01-04 09:08:00,
2013-01-04 03:13:00,12.5,8.6,29.47,WSW,248,12.0,13.0,84,0.00,,---,0.00,VWS V13.01,2013-01-04 09:13:00,
2013-01-04 03:18:00,12.7,8.8,29.47,WSW,248,8.8,9.8,84,0.00,,---,0.00,VWS V13.01,2013-01-04 09:18:00,
2013-01-04 03:23:00,12.7,8.8,29.47,SW,225,6.6,7.6,84,0.00,,---,0.00,VWS V13.01,2013-01-04 09:23:00,
2013-01-04 03:28:00,12.9,9.0,29.47,SW,225,8.4,13.0,84,0.00,,---,0.00,VWS V13.01,2013-01-04 09:28:00,
2013-01-04 03:33:00,13.1,9.2,29.46,SW,225,5.2,6.2,84,0.00,,---,0.00,VWS V13.01,2013-01-04 09:33:00,
2013-01-04 03:38:00,13.1,9.2,29.46,SW,225,0.0,1.0,84,0.00,,---,0.00,VWS V13.01,2013-01-04 09:38:00,
2013-01-04 03:43:00,13.1,8.9,29.46,SW,225,12.8,13.8,83,0.00,,---,0.00,VWS V13.01,2013-01-04 09:43:00,
2013-01-04 03:49:00,13.2,9.3,29.46,SW,225,9.2,10.2,84,0.00,,---,0.00,VWS V13.01,2013-01-04 09:49:00,
2013-01-04 03:54:00,13.2,9.3,29.46,SW,225,8.0,9.0,84,0.00,,---,0.00,VWS V13.01,2013-01-04 09:54:00,
2013-01-04 03:59:00,13.2,9.3,29.46,SW,225,13.8,14.8,84,0.00,,---,0.00,VWS V13.01,2013-01-04 09:59:00,
2013-01-04 04:04:00,13.6,9.7,29.46,WSW,248,10.2,11.2,84,0.00,,---,0.00,VWS V13.01,2013-01-04 10:04:00,
2013-01-04 04:09:00,13.6,9.4,29.45,WSW,248,0.0,8.0,83,0.00,,---,0.00,VWS V13.01,2013-01-04 10:09:00,
2013-01-04 04:14:00,13.6,9.4,29.44,SSW,202,4.0,5.0,83,0.00,,---,0.00,VWS V13.01,2013-01-04 10:14:00,
2013-01-04 04:19:00,13.8,9.6,29.44,SW,225,17.4,18.4,83,0.00,,---,0.00,VWS V13.01,2013-01-04 10:19:00,
2013-01-04 04:24:00,13.8,9.6,29.44,SW,225,4.0,5.0,83,0.00,,---,0.00,VWS V13.01,2013-01-04 10:24:00,
2013-01-04 04:30:00,13.8,9.6,29.43,SW,225,0.0,7.2,83,0.00,,---,0.00,VWS V13.01,2013-01-04 10:30:00,
2013-01-04 04:35:00,14.1,9.9,29.43,SSW,202,12.4,13.4,83,0.00,,---,0.00,VWS V13.01,2013-01-04 10:35:00,
2013-01-04 04:40:00,14.1,9.9,29.43,SW,225,15.2,16.2,83,0.00,,---,0.00,VWS V13.01,2013-01-04 10:40:00,
2013-01-04 04:45:00,14.1,9.9,29.43,SW,225,17.4,18.4,83,0.00,,---,0.00,VWS V13.01,2013-01-04 10:45:00,
2013-01-04 04:50:00,14.1,9.9,29.43,SW,225,21.0,22.0,83,0.00,,---,0.00,VWS V13.01,2013-01-04 10:50:00,
2013-01-04 04:55:00,14.1,9.9,29.43,SW,225,0.0,1.0,83,0.00,,---,0.00,VWS V13.01,2013-01-04 10:55:00,
2013-01-04 05:00:00,14.1,9.9,29.43,West,270,5.8,16.2,83,0.00,,---,0.00,VWS V13.01,2013-01-04 11:00:00,
2013-01-04 05:05:00,14.1,9.9,29.44,WSW,248,3.0,4.0,83,0.00,,---,0.00,VWS V13.01,2013-01-04 11:05:00,
2013-01-04 05:10:00,14.1,9.9,29.43,SSW,202,0.0,1.4,83,0.00,,---,0.00,VWS V13.01,2013-01-04 11:10:00,
2013-01-04 05:15:00,14.1,9.9,29.43,SW,225,5.2,6.2,83,0.00,,---,0.00,VWS V13.01,2013-01-04 11:15:00,
2013-01-04 05:20:00,14.1,9.9,29.43,SSW,202,0.0,1.0,83,0.00,,---,0.00,VWS V13.01,2013-01-04 11:20:00,
2013-01-04 05:25:00,14.1,9.9,29.43,SW,225,3.4,4.4,83,0.00,,---,0.00,VWS V13.01,2013-01-04 11:25:00,
2013-01-04 05:30:00,14.1,9.9,29.43,SW,225,9.8,10.8,83,0.00,,---,0.00,VWS V13.01,2013-01-04 11:30:00,
2013-01-04 05:35:00,14.1,9.6,29.43,SW,225,0.0,9.0,82,0.00,,---,0.00,VWS V13.01,2013-01-04 11:35:00,
2013-01-04 05:40:00,14.1,9.6,29.43,SW,225,0.0,3.6,82,0.00,,---,0.00,VWS V13.01,2013-01-04 11:40:00,
2013-01-04 05:45:00,14.1,9.6,29.44,SW,225,0.0,1.0,82,0.00,,---,0.00,VWS V13.01,2013-01-04 11:45:00,
2013-01-04 05:50:00,14.1,9.6,29.44,SW,225,0.0,1.0,82,0.00,,---,0.00,VWS V13.01,2013-01-04 11:50:00,
2013-01-04 05:55:00,14.1,9.6,29.44,SW,225,0.0,1.0,82,0.00,,---,0.00,VWS V13.01,2013-01-04 11:55:00,
2013-01-04 06:00:00,14.1,9.6,29.44,SW,225,0.0,1.0,82,0.00,,---,0.00,VWS V13.01,2013-01-04 12:00:00,
2013-01-04 06:05:00,14.1,9.6,29.44,West,270,0.0,1.0,82,0.00,,---,0.00,VWS V13.01,2013-01-04 12:05:00,
2013-01-04 06:10:00,13.8,9.3,29.44,West,270,0.0,1.0,82,0.00,,---,0.00,VWS V13.01,2013-01-04 12:10:00,
2013-01-04 06:15:00,13.8,9.3,29.44,WSW,248,0.0,1.0,82,0.00,,---,0.00,VWS V13.01,2013-01-04 12:15:00,
2013-01-04 06:20:00,13.8,9.3,29.44,WSW,248,0.0,1.0,82,0.00,,---,0.00,VWS V13.01,2013-01-04 12:20:00,
2013-01-04 06:25:00,13.8,9.3,29.43,WSW,248,0.0,1.0,82,0.00,,---,0.00,VWS V13.01,2013-01-04 12:25:00,
2013-01-04 06:30:00,13.8,9.3,29.44,SW,225,0.0,6.2,82,0.00,,---,0.00,VWS V13.01,2013-01-04 12:30:00,
2013-01-04 06:35:00,13.8,9.3,29.43,SW,225,3.0,4.0,82,0.00,,---,0.00,VWS V13.01,2013-01-04 12:35:00,
2013-01-04 06:40:00,14.0,9.5,29.43,SW,225,8.4,9.4,82,0.00,,---,0.00,VWS V13.01,2013-01-04 12:40:00,
2013-01-04 06:45:00,14.1,9.6,29.43,SW,225,3.4,4.4,82,0.00,,---,0.00,VWS V13.01,2013-01-04 12:45:00,
2013-01-04 06:50:00,14.1,9.6,29.43,SW,225,2.6,16.6,82,0.00,,---,0.00,VWS V13.01,2013-01-04 12:50:00,
2013-01-04 06:55:00,14.1,9.6,29.43,SW,225,15.6,16.6,82,0.00,,---,0.00,VWS V13.01,2013-01-04 12:55:00,
2013-01-04 07:00:00,14.3,9.8,29.43,SW,225,10.6,11.6,82,0.00,,---,0.00,VWS V13.01,2013-01-04 13:00:00,
2013-01-04 07:05:00,14.5,10.0,29.43,SW,225,18.6,19.6,82,0.00,,---,0.00,VWS V13.01,2013-01-04 13:05:00,
2013-01-04 07:10:00,14.7,10.2,29.43,WSW,248,10.6,11.6,82,0.00,,---,0.00,VWS V13.01,2013-01-04 13:10:00,
2013-01-04 07:15:00,14.9,10.4,29.43,SW,225,11.6,12.6,82,0.00,,---,0.00,VWS V13.01,2013-01-04 13:15:00,
2013-01-04 07:20:00,15.0,10.5,29.43,WSW,248,8.4,9.4,82,0.00,,---,0.00,VWS V13.01,2013-01-04 13:20:00,
2013-01-04 07:25:00,15.2,10.7,29.42,SW,225,15.6,16.6,82,0.00,,---,0.00,VWS V13.01,2013-01-04 13:25:00,
2013-01-04 07:30:00,15.4,10.9,29.43,SW,225,0.0,9.0,82,0.00,,---,0.00,VWS V13.01,2013-01-04 13:30:00,
2013-01-04 07:35:00,15.6,11.1,29.42,WSW,248,16.4,17.4,82,0.00,,---,0.00,VWS V13.01,2013-01-04 13:35:00,
2013-01-04 07:41:00,15.6,11.1,29.42,SW,225,8.8,9.8,82,0.00,,---,0.00,VWS V13.01,2013-01-04 13:41:00,
2013-01-04 07:47:00,15.6,11.1,29.42,SW,225,6.2,13.4,82,0.00,,---,0.00,VWS V13.01,2013-01-04 13:47:00,
2013-01-04 07:52:00,15.6,10.8,29.41,SW,225,0.0,1.0,81,0.00,,---,0.00,VWS V13.01,2013-01-04 13:52:00,
2013-01-04 07:57:00,15.6,10.8,29.41,SSW,202,4.0,5.4,81,0.00,,---,0.00,VWS V13.01,2013-01-04 13:57:00,
2013-01-04 08:02:00,15.6,10.8,29.41,WSW,248,8.4,9.4,81,0.00,,---,0.00,VWS V13.01,2013-01-04 14:02:00,
2013-01-04 08:07:00,15.6,10.8,29.41,SW,225,13.8,14.8,81,0.00,,---,0.00,VWS V13.01,2013-01-04 14:07:00,
2013-01-04 08:12:00,15.4,10.6,29.41,SW,225,11.6,12.6,81,0.00,,---,0.00,VWS V13.01,2013-01-04 14:12:00,
2013-01-04 08:17:00,15.4,10.6,29.42,WSW,248,6.6,13.0,81,0.00,,---,0.00,VWS V13.01,2013-01-04 14:17:00,
2013-01-04 08:22:00,15.4,10.6,29.42,SW,225,4.4,10.2,81,0.00,,---,0.00,VWS V13.01,2013-01-04 14:22:00,
2013-01-04 08:27:00,15.6,10.8,29.42,SW,225,0.0,8.0,81,0.00,,---,0.00,VWS V13.01,2013-01-04 14:27:00,
2013-01-04 08:33:00,15.6,10.8,29.42,SW,225,5.2,13.0,81,0.00,,---,0.00,VWS V13.01,2013-01-04 14:33:00,
2013-01-04 08:38:00,15.8,11.0,29.42,SW,225,5.8,6.8,81,0.00,,---,0.00,VWS V13.01,2013-01-04 14:38:00,
2013-01-04 08:43:00,15.9,11.1,29.42,WSW,248,4.4,14.4,81,0.00,,---,0.00,VWS V13.01,2013-01-04 14:43:00,
2013-01-04 08:48:00,16.1,11.3,29.42,SW,225,0.0,6.2,81,0.00,,---,0.00,VWS V13.01,2013-01-04 14:48:00,
2013-01-04 08:53:00,16.3,11.5,29.42,WSW,248,0.0,11.2,81,0.00,,---,0.00,VWS V13.01,2013-01-04 14:53:00,
2013-01-04 08:58:00,16.5,11.7,29.42,SW,225,11.6,12.6,81,0.00,,---,0.00,VWS V13.01,2013-01-04 14:58:00,
2013-01-04 09:03:00,16.7,11.9,29.42,WSW,248,0.0,13.4,81,0.00,,---,0.00,VWS V13.01,2013-01-04 15:03:00,
2013-01-04 09:08:00,16.8,11.7,29.43,West,270,6.2,7.2,80,0.00,,---,0.00,VWS V13.01,2013-01-04 15:08:00,
2013-01-04 09:13:00,17.2,12.1,29.43,West,270,0.0,1.0,80,0.00,,---,0.00,VWS V13.01,2013-01-04 15:13:00,
2013-01-04 09:18:00,17.7,12.6,29.43,West,270,2.6,3.6,80,0.00,,---,0.00,VWS V13.01,2013-01-04 15:18:00,
2013-01-04 09:23:00,17.9,12.8,29.43,West,270,13.4,14.4,80,0.00,,---,0.00,VWS V13.01,2013-01-04 15:23:00,
2013-01-04 09:28:00,18.3,13.2,29.43,WSW,248,6.6,7.6,80,0.00,,---,0.00,VWS V13.01,2013-01-04 15:28:00,
2013-01-04 09:33:00,18.6,13.5,29.43,SW,225,5.2,9.4,80,0.00,,---,0.00,VWS V13.01,2013-01-04 15:33:00,
2013-01-04 09:38:00,19.0,13.6,29.43,West,270,0.0,6.2,79,0.00,,---,0.00,VWS V13.01,2013-01-04 15:38:00,
2013-01-04 09:43:00,19.4,13.7,29.43,West,270,11.0,12.0,78,0.00,,---,0.00,VWS V13.01,2013-01-04 15:43:00,
2013-01-04 09:48:00,19.5,13.8,29.43,West,270,6.2,10.8,78,0.00,,---,0.00,VWS V13.01,2013-01-04 15:48:00,
2013-01-04 09:53:00,19.9,14.2,29.44,West,270,10.2,11.2,78,0.00,,---,0.00,VWS V13.01,2013-01-04 15:53:00,
2013-01-04 09:58:00,20.1,14.4,29.44,West,270,0.0,15.2,78,0.00,,---,0.00,VWS V13.01,2013-01-04 15:58:00,
2013-01-04 10:03:00,20.4,14.4,29.44,SW,225,14.6,15.6,77,0.00,,---,0.00,VWS V13.01,2013-01-04 16:03:00,
2013-01-04 10:08:00,20.8,14.7,29.44,West,270,14.6,15.6,77,0.00,,---,0.00,VWS V13.01,2013-01-04 16:08:00,
2013-01-04 10:13:00,21.0,14.9,29.44,WNW,292,21.8,22.8,77,0.00,,---,0.00,VWS V13.01,2013-01-04 16:13:00,
2013-01-04 10:18:00,21.3,14.9,29.45,West,270,7.6,8.6,76,0.00,,---,0.00,VWS V13.01,2013-01-04 16:18:00,
2013-01-04 10:23:00,21.5,15.4,29.44,WNW,292,15.6,16.6,77,0.00,,---,0.00,VWS V13.01,2013-01-04 16:23:00,
2013-01-04 10:28:00,21.9,15.5,29.44,West,270,5.8,11.6,76,0.00,,---,0.00,VWS V13.01,2013-01-04 16:28:00,
2013-01-04 10:33:00,22.1,15.4,29.45,West,270,6.6,17.0,75,0.00,,---,0.00,VWS V13.01,2013-01-04 16:33:00,
2013-01-04 10:38:00,22.2,15.5,29.44,West,270,3.0,4.0,75,0.00,,---,0.00,VWS V13.01,2013-01-04 16:38:00,
2013-01-04 10:43:00,22.4,15.7,29.44,West,270,7.0,8.0,75,0.00,,---,0.00,VWS V13.01,2013-01-04 16:43:00,
2013-01-04 10:48:00,22.8,16.1,29.44,West,270,0.4,4.4,75,0.00,,---,0.00,VWS V13.01,2013-01-04 16:48:00,
2013-01-04 10:53:00,23.0,16.0,29.44,WNW,292,8.8,9.8,74,0.00,,---,0.00,VWS V13.01,2013-01-04 16:53:00,
2013-01-04 10:58:00,23.1,16.1,29.44,West,270,0.0,6.8,74,0.00,,---,0.00,VWS V13.01,2013-01-04 16:58:00,
2013-01-04 11:03:00,23.3,16.2,29.43,West,270,5.8,11.6,74,0.00,,---,0.00,VWS V13.01,2013-01-04 17:03:00,
2013-01-04 11:08:00,23.5,16.5,29.43,West,270,0.0,7.6,74,0.00,,---,0.00,VWS V13.01,2013-01-04 17:08:00,
2013-01-04 11:13:00,23.5,16.1,29.43,WSW,248,4.4,5.4,73,0.00,,---,0.00,VWS V13.01,2013-01-04 17:13:00,
2013-01-04 11:18:00,23.9,16.5,29.43,WSW,248,0.0,4.4,73,0.00,,---,0.00,VWS V13.01,2013-01-04 17:18:00,
2013-01-04 11:23:00,24.0,16.6,29.42,WSW,248,11.0,22.8,73,0.00,,---,0.00,VWS V13.01,2013-01-04 17:23:00,
2013-01-04 11:28:00,24.0,16.3,29.42,West,270,7.6,8.6,72,0.00,,---,0.00,VWS V13.01,2013-01-04 17:28:00,
2013-01-04 11:33:00,24.2,16.5,29.42,SW,225,19.2,20.2,72,0.00,,---,0.00,VWS V13.01,2013-01-04 17:33:00,
2013-01-04 11:38:00,24.4,16.4,29.42,West,270,9.2,15.2,71,0.00,,---,0.00,VWS V13.01,2013-01-04 17:38:00,
2013-01-04 11:43:00,24.4,16.4,29.42,West,270,4.4,5.4,71,0.00,,---,0.00,VWS V13.01,2013-01-04 17:43:00,
2013-01-04 11:48:00,24.6,16.9,29.41,WSW,248,18.6,19.6,72,0.00,,---,0.00,VWS V13.01,2013-01-04 17:48:00,
2013-01-04 11:53:00,24.9,16.8,29.41,West,270,2.2,8.6,71,0.00,,---,0.00,VWS V13.01,2013-01-04 17:53:00,
2013-01-04 11:59:00,24.9,16.5,29.41,West,270,8.0,17.4,70,0.00,,---,0.00,VWS V13.01,2013-01-04 17:59:00,
2013-01-04 12:04:00,24.9,16.5,29.40,West,270,0.0,5.8,70,0.00,,---,0.00,VWS V13.01,2013-01-04 18:04:00,
2013-01-04 12:09:00,25.1,16.7,29.40,WSW,248,16.4,17.4,70,0.00,,---,0.00,VWS V13.01,2013-01-04 18:09:00,
2013-01-04 12:14:00,25.3,16.9,29.39,WSW,248,6.2,9.0,70,0.00,,---,0.00,VWS V13.01,2013-01-04 18:14:00,
2013-01-04 12:19:00,25.5,17.1,29.40,SW,225,5.8,7.6,70,0.00,,---,0.00,VWS V13.01,2013-01-04 18:19:00,
2013-01-04 12:24:00,25.7,17.3,29.39,SW,225,12.0,21.4,70,0.00,,---,0.00,VWS V13.01,2013-01-04 18:24:00,
2013-01-04 12:29:00,26.0,17.6,29.39,West,270,4.4,7.6,70,0.00,,---,0.00,VWS V13.01,2013-01-04 18:29:00,
2013-01-04 12:34:00,26.4,18.0,29.39,West,270,10.2,16.2,70,0.00,,---,0.00,VWS V13.01,2013-01-04 18:34:00,
2013-01-04 12:39:00,26.4,17.6,29.38,West,270,5.8,6.8,69,0.00,,---,0.00,VWS V13.01,2013-01-04 18:39:00,
2013-01-04 12:44:00,26.2,17.1,29.38,WSW,248,9.8,10.8,68,0.00,,---,0.00,VWS V13.01,2013-01-04 18:44:00,
2013-01-04 12:49:00,26.4,17.6,29.38,West,270,6.6,7.6,69,0.00,,---,0.00,VWS V13.01,2013-01-04 18:49:00,
2013-01-04 12:54:00,26.7,17.9,29.38,West,270,9.8,10.8,69,0.00,,---,0.00,VWS V13.01,2013-01-04 18:54:00,
2013-01-04 12:59:00,27.1,18.0,29.38,West,270,7.0,8.0,68,0.00,,---,0.00,VWS V13.01,2013-01-04 18:59:00,
2013-01-04 13:05:00,27.3,17.8,29.37,West,270,4.8,10.2,67,0.00,,---,0.00,VWS V13.01,2013-01-04 19:05:00,
2013-01-04 13:11:00,27.3,17.8,29.37,West,270,0.0,5.4,67,0.00,,---,0.00,VWS V13.01,2013-01-04 19:11:00,
2013-01-04 13:17:00,27.5,18.0,29.36,West,270,6.6,8.0,67,0.00,,---,0.00,VWS V13.01,2013-01-04 19:17:00,
2013-01-04 13:22:00,27.6,18.1,29.36,SW,225,9.8,10.8,67,0.00,,---,0.00,VWS V13.01,2013-01-04 19:22:00,
2013-01-04 13:27:00,27.6,18.1,29.36,SW,225,16.0,17.0,67,0.00,,---,0.00,VWS V13.01,2013-01-04 19:27:00,
2013-01-04 13:32:00,28.0,18.5,29.36,West,270,5.2,8.6,67,0.00,,---,0.00,VWS V13.01,2013-01-04 19:32:00,
2013-01-04 13:37:00,28.0,18.5,29.35,West,270,12.4,13.4,67,0.00,,---,0.00,VWS V13.01,2013-01-04 19:37:00,
2013-01-04 13:43:00,28.2,18.7,29.35,SW,225,18.2,19.2,67,0.00,,---,0.00,VWS V13.01,2013-01-04 19:43:00,
2013-01-04 13:48:00,28.4,18.9,29.35,WSW,248,3.0,10.8,67,0.00,,---,0.00,VWS V13.01,2013-01-04 19:48:00,
2013-01-04 13:53:00,28.5,19.0,29.34,West,270,2.6,9.4,67,0.00,,---,0.00,VWS V13.01,2013-01-04 19:53:00,
2013-01-04 13:58:00,28.7,19.1,29.32,WSW,248,8.4,15.2,67,0.00,,---,0.00,VWS V13.01,2013-01-04 19:58:00,
2013-01-04 14:04:00,28.7,18.8,29.30,WSW,248,0.0,1.0,66,0.00,,---,0.00,VWS V13.01,2013-01-04 20:04:00,
2013-01-04 14:10:00,29.1,19.5,29.28,SW,225,20.0,21.0,67,0.00,,---,0.00,VWS V13.01,2013-01-04 20:10:00,
2013-01-04 14:15:00,29.3,19.4,29.27,West,270,0.0,1.0,66,0.00,,---,0.00,VWS V13.01,2013-01-04 20:15:00,
2013-01-04 14:20:00,29.6,19.6,29.27,WSW,248,0.0,1.0,66,0.00,,---,0.00,VWS V13.01,2013-01-04 20:20:00,
2013-01-04 14:25:00,29.8,19.8,29.27,WSW,248,0.0,2.6,66,0.00,,---,0.00,VWS V13.01,2013-01-04 20:25:00,
2013-01-04 14:30:00,29.8,19.8,29.28,West,270,7.6,8.6,66,0.00,,---,0.00,VWS V13.01,2013-01-04 20:30:00,
2013-01-04 14:35:00,29.6,19.6,29.27,West,270,4.4,5.4,66,0.00,,---,0.00,VWS V13.01,2013-01-04 20:35:00,
2013-01-04 14:40:00,29.6,19.6,29.27,West,270,0.0,5.8,66,0.00,,---,0.00,VWS V13.01,2013-01-04 20:40:00,
2013-01-04 14:45:00,29.4,19.5,29.27,West,270,0.0,1.0,66,0.00,,---,0.00,VWS V13.01,2013-01-04 20:45:00,
2013-01-04 14:50:00,29.4,19.5,29.28,West,270,6.2,14.4,66,0.00,,---,0.00,VWS V13.01,2013-01-04 20:50:00,
2013-01-04 14:55:00,29.4,19.5,29.28,West,270,9.8,10.8,66,0.00,,---,0.00,VWS V13.01,2013-01-04 20:55:00,
2013-01-04 15:00:00,29.4,19.5,29.28,West,270,0.0,1.0,66,0.00,,---,0.00,VWS V13.01,2013-01-04 21:00:00,
2013-01-04 15:05:00,29.6,19.6,29.28,SW,225,9.2,18.0,66,0.00,,---,0.00,VWS V13.01,2013-01-04 21:05:00,
2013-01-04 15:10:00,29.8,19.8,29.28,WSW,248,10.6,11.6,66,0.00,,---,0.00,VWS V13.01,2013-01-04 21:10:00,
2013-01-04 15:15:00,29.8,19.8,29.29,SW,225,16.4,21.0,66,0.00,,---,0.00,VWS V13.01,2013-01-04 21:15:00,
2013-01-04 15:21:00,29.8,19.8,29.29,WSW,248,0.0,4.4,66,0.00,,---,0.00,VWS V13.01,2013-01-04 21:21:00,
2013-01-04 15:26:00,29.4,19.5,29.29,West,270,0.0,1.0,66,0.00,,---,0.00,VWS V13.01,2013-01-04 21:26:00,
2013-01-04 15:31:00,29.6,19.6,29.29,West,270,0.0,1.0,66,0.00,,---,0.00,VWS V13.01,2013-01-04 21:31:00,
2013-01-04 15:36:00,29.8,19.8,29.29,West,270,0.0,1.0,66,0.00,,---,0.00,VWS V13.01,2013-01-04 21:36:00,
2013-01-04 15:41:00,29.4,19.5,29.30,West,270,0.0,1.0,66,0.00,,---,0.00,VWS V13.01,2013-01-04 21:41:00,
2013-01-04 15:46:00,29.1,19.2,29.30,West,270,0.0,1.0,66,0.00,,---,0.00,VWS V13.01,2013-01-04 21:46:00,
2013-01-04 15:51:00,28.9,19.0,29.30,West,270,0.0,1.0,66,0.00,,---,0.00,VWS V13.01,2013-01-04 21:51:00,
2013-01-04 15:56:00,28.5,18.6,29.30,West,270,0.0,1.0,66,0.00,,---,0.00,VWS V13.01,2013-01-04 21:56:00,
2013-01-04 16:01:00,28.5,19.0,29.30,West,270,0.0,1.0,67,0.00,,---,0.00,VWS V13.01,2013-01-04 22:01:00,
2013-01-04 16:06:00,28.4,18.9,29.31,West,270,0.0,1.0,67,0.00,,---,0.00,VWS V13.01,2013-01-04 22:06:00,
2013-01-04 16:11:00,28.2,18.7,29.31,West,270,0.0,1.0,67,0.00,,---,0.00,VWS V13.01,2013-01-04 22:11:00,
2013-01-04 16:16:00,28.0,18.5,29.31,West,270,0.0,1.0,67,0.00,,---,0.00,VWS V13.01,2013-01-04 22:16:00,
2013-01-04 16:21:00,28.0,18.5,29.31,West,270,0.0,1.0,67,0.00,,---,0.00,VWS V13.01,2013-01-04 22:21:00,
2013-01-04 16:26:00,27.6,18.1,29.32,West,270,0.0,1.0,67,0.00,,---,0.00,VWS V13.01,2013-01-04 22:26:00,
2013-01-04 16:31:00,27.5,18.0,29.32,West,270,0.0,1.0,67,0.00,,---,0.00,VWS V13.01,2013-01-04 22:31:00,
2013-01-04 16:36:00,27.3,18.1,29.31,West,270,0.0,1.0,68,0.00,,---,0.00,VWS V13.01,2013-01-04 22:36:00,
2013-01-04 16:41:00,27.1,18.0,29.32,West,270,0.0,1.0,68,0.00,,---,0.00,VWS V13.01,2013-01-04 22:41:00,
2013-01-04 16:46:00,26.7,17.6,29.32,West,270,0.0,1.0,68,0.00,,---,0.00,VWS V13.01,2013-01-04 22:46:00,
2013-01-04 16:51:00,26.4,17.3,29.31,West,270,0.0,1.0,68,0.00,,---,0.00,VWS V13.01,2013-01-04 22:51:00,
2013-01-04 16:56:00,26.2,17.1,29.32,West,270,0.0,1.0,68,0.00,,---,0.00,VWS V13.01,2013-01-04 22:56:00,
2013-01-04 17:01:00,26.2,17.1,29.32,West,270,0.0,1.0,68,0.00,,---,0.00,VWS V13.01,2013-01-04 23:01:00,
2013-01-04 17:06:00,26.2,17.4,29.32,West,270,0.0,1.0,69,0.00,,---,0.00,VWS V13.01,2013-01-04 23:06:00,
2013-01-04 17:11:00,25.8,17.0,29.33,West,270,0.0,1.0,69,0.00,,---,0.00,VWS V13.01,2013-01-04 23:11:00,
2013-01-04 17:16:00,25.8,17.0,29.33,West,270,0.0,1.0,69,0.00,,---,0.00,VWS V13.01,2013-01-04 23:16:00,
2013-01-04 17:21:00,25.5,16.8,29.33,West,270,0.0,1.0,69,0.00,,---,0.00,VWS V13.01,2013-01-04 23:21:00,
2013-01-04 17:26:00,25.5,16.8,29.33,West,270,0.0,1.0,69,0.00,,---,0.00,VWS V13.01,2013-01-04 23:26:00,
2013-01-04 17:31:00,25.3,16.6,29.33,West,270,0.0,1.0,69,0.00,,---,0.00,VWS V13.01,2013-01-04 23:31:00,
2013-01-04 17:36:00,25.1,16.4,29.33,West,270,0.0,1.0,69,0.00,,---,0.00,VWS V13.01,2013-01-04 23:36:00,
2013-01-04 17:41:00,24.9,16.5,29.34,West,270,0.0,1.0,70,0.00,,---,0.00,VWS V13.01,2013-01-04 23:41:00,
2013-01-04 17:46:00,24.6,16.2,29.33,West,270,0.0,1.0,70,0.00,,---,0.00,VWS V13.01,2013-01-04 23:46:00,
2013-01-04 17:51:00,24.6,16.2,29.33,West,270,0.0,1.0,70,0.00,,---,0.00,VWS V13.01,2013-01-04 23:51:00,
2013-01-04 17:56:00,24.4,16.0,29.33,West,270,0.0,1.0,70,0.00,,---,0.00,VWS V13.01,2013-01-04 23:56:00,
2013-01-04 18:01:00,24.0,15.6,29.33,West,270,0.0,1.0,70,0.00,,---,0.00,VWS V13.01,2013-01-05 00:01:00,
2013-01-04 18:06:00,23.9,15.6,29.34,West,270,0.0,1.0,70,0.00,,---,0.00,VWS V13.01,2013-01-05 00:06:00,
2013-01-04 18:11:00,23.5,15.2,29.34,West,270,0.0,1.0,70,0.00,,---,0.00,VWS V13.01,2013-01-05 00:11:00,
2013-01-04 18:16:00,23.5,15.2,29.34,West,270,0.0,1.0,70,0.00,,---,0.00,VWS V13.01,2013-01-05 00:16:00,
2013-01-04 18:21:00,23.1,15.1,29.34,West,270,0.0,1.0,71,0.00,,---,0.00,VWS V13.01,2013-01-05 00:21:00,
2013-01-04 18:26:00,23.0,15.0,29.35,NNW,338,28.0,29.0,71,0.00,,---,0.00,VWS V13.01,2013-01-05 00:26:00,
2013-01-04 18:31:00,23.0,15.0,29.35,West,270,0.0,1.0,71,0.00,,---,0.00,VWS V13.01,2013-01-05 00:31:00,
2013-01-04 18:36:00,22.8,14.8,29.34,West,270,0.0,1.0,71,0.00,,---,0.00,VWS V13.01,2013-01-05 00:36:00,
2013-01-04 18:41:00,22.8,14.8,29.35,West,270,0.0,1.0,71,0.00,,---,0.00,VWS V13.01,2013-01-05 00:41:00,
2013-01-04 18:46:00,22.6,14.6,29.35,West,270,0.0,1.0,71,0.00,,---,0.00,VWS V13.01,2013-01-05 00:46:00,
2013-01-04 18:51:00,22.6,14.6,29.35,West,270,0.0,1.0,71,0.00,,---,0.00,VWS V13.01,2013-01-05 00:51:00,
2013-01-04 18:56:00,22.4,14.4,29.35,West,270,0.0,1.0,71,0.00,,---,0.00,VWS V13.01,2013-01-05 00:56:00,
2013-01-04 19:01:00,22.2,14.6,29.36,West,270,0.0,1.0,72,0.00,,---,0.00,VWS V13.01,2013-01-05 01:01:00,
2013-01-04 19:07:00,22.1,14.5,29.36,West,270,0.0,1.0,72,0.00,,---,0.00,VWS V13.01,2013-01-05 01:07:00,
2013-01-04 19:12:00,21.9,14.3,29.36,West,270,0.0,1.0,72,0.00,,---,0.00,VWS V13.01,2013-01-05 01:12:00,
2013-01-04 19:17:00,21.7,14.1,29.36,West,270,0.0,1.0,72,0.00,,---,0.00,VWS V13.01,2013-01-05 01:17:00,
2013-01-04 19:22:00,21.5,13.9,29.36,West,270,0.0,1.0,72,0.00,,---,0.00,VWS V13.01,2013-01-05 01:22:00,
2013-01-04 19:27:00,21.3,14.0,29.36,West,270,0.0,1.0,73,0.00,,---,0.00,VWS V13.01,2013-01-05 01:27:00,
2013-01-04 19:32:00,21.2,13.9,29.36,WSW,248,0.0,1.0,73,0.00,,---,0.00,VWS V13.01,2013-01-05 01:32:00,
2013-01-04 19:37:00,21.0,13.7,29.36,WSW,248,0.0,1.0,73,0.00,,---,0.00,VWS V13.01,2013-01-05 01:37:00,
2013-01-04 19:42:00,21.0,13.7,29.36,WSW,248,0.0,1.0,73,0.00,,---,0.00,VWS V13.01,2013-01-05 01:42:00,
2013-01-04 19:47:00,21.0,13.7,29.37,WSW,248,0.0,1.0,73,0.00,,---,0.00,VWS V13.01,2013-01-05 01:47:00,
2013-01-04 19:52:00,21.0,14.0,29.36,WSW,248,4.8,5.8,74,0.00,,---,0.00,VWS V13.01,2013-01-05 01:52:00,
2013-01-04 19:58:00,21.0,14.0,29.36,WSW,248,0.0,1.0,74,0.00,,---,0.00,VWS V13.01,2013-01-05 01:58:00,
2013-01-04 20:03:00,21.0,14.0,29.36,WSW,248,0.0,1.0,74,0.00,,---,0.00,VWS V13.01,2013-01-05 02:03:00,
2013-01-04 20:08:00,21.0,14.0,29.36,WSW,248,0.0,1.0,74,0.00,,---,0.00,VWS V13.01,2013-01-05 02:08:00,
2013-01-04 20:13:00,21.0,14.0,29.36,WSW,248,0.0,1.0,74,0.00,,---,0.00,VWS V13.01,2013-01-05 02:13:00,
2013-01-04 20:18:00,21.0,14.3,29.36,WSW,248,0.0,1.0,75,0.00,,---,0.00,VWS V13.01,2013-01-05 02:18:00,
2013-01-04 20:23:00,21.0,14.3,29.36,WSW,248,0.0,1.0,75,0.00,,---,0.00,VWS V13.01,2013-01-05 02:23:00,
2013-01-04 20:28:00,21.3,14.6,29.36,WSW,248,0.0,1.0,75,0.00,,---,0.00,VWS V13.01,2013-01-05 02:28:00,
2013-01-04 20:33:00,21.3,14.6,29.36,WSW,248,0.0,1.0,75,0.00,,---,0.00,VWS V13.01,2013-01-05 02:33:00,
2013-01-04 20:41:00,21.3,14.6,29.36,WSW,248,0.0,1.0,75,0.00,,---,0.00,VWS V13.01,2013-01-05 02:41:00,
2013-01-04 20:46:00,21.3,14.6,29.35,WSW,248,0.0,1.0,75,0.00,,---,0.00,VWS V13.01,2013-01-05 02:46:00,
2013-01-04 20:51:00,21.3,14.6,29.35,WSW,248,0.0,1.0,75,0.00,,---,0.00,VWS V13.01,2013-01-05 02:51:00,
2013-01-04 20:56:00,21.0,14.3,29.35,WSW,248,0.0,1.0,75,0.00,,---,0.00,VWS V13.01,2013-01-05 02:56:00,
2013-01-04 21:01:00,21.0,14.3,29.35,WSW,248,0.0,1.0,75,0.00,,---,0.00,VWS V13.01,2013-01-05 03:01:00,
2013-01-04 21:06:00,21.0,14.3,29.35,WSW,248,0.0,1.0,75,0.00,,---,0.00,VWS V13.01,2013-01-05 03:06:00,
2013-01-04 21:11:00,21.0,14.3,29.35,North,0,0.0,1.0,75,0.00,,---,0.00,VWS V13.01,2013-01-05 03:11:00,
2013-01-04 21:16:00,20.8,14.1,29.34,WSW,248,0.0,1.0,75,0.00,,---,0.00,VWS V13.01,2013-01-05 03:16:00,
2013-01-04 21:21:00,20.8,14.1,29.34,WSW,248,0.0,1.0,75,0.00,,---,0.00,VWS V13.01,2013-01-05 03:21:00,
2013-01-04 21:26:00,20.8,14.1,29.34,WSW,248,0.0,1.0,75,0.00,,---,0.00,VWS V13.01,2013-01-05 03:26:00,
2013-01-04 21:31:00,20.6,13.9,29.35,WSW,248,0.0,1.0,75,0.00,,---,0.00,VWS V13.01,2013-01-05 03:31:00,
2013-01-04 21:36:00,20.4,13.8,29.35,WSW,248,0.0,1.0,75,0.00,,---,0.00,VWS V13.01,2013-01-05 03:36:00,
2013-01-04 21:41:00,20.4,13.8,29.35,WSW,248,0.0,1.0,75,0.00,,---,0.00,VWS V13.01,2013-01-05 03:41:00,
2013-01-04 21:46:00,20.4,13.8,29.35,WSW,248,0.0,1.0,75,0.00,,---,0.00,VWS V13.01,2013-01-05 03:46:00,
2013-01-04 21:51:00,20.3,13.4,29.34,WSW,248,0.0,1.0,74,0.00,,---,0.00,VWS V13.01,2013-01-05 03:51:00,
2013-01-04 21:56:00,20.1,13.2,29.34,WSW,248,0.0,1.0,74,0.00,,---,0.00,VWS V13.01,2013-01-05 03:56:00,
2013-01-04 22:01:00,19.9,13.0,29.33,WSW,248,0.0,1.0,74,0.00,,---,0.00,VWS V13.01,2013-01-05 04:01:00,
2013-01-04 22:06:00,19.9,13.0,29.33,WSW,248,0.0,1.0,74,0.00,,---,0.00,VWS V13.01,2013-01-05 04:06:00,
2013-01-04 22:11:00,19.5,12.6,29.33,WSW,248,0.0,1.0,74,0.00,,---,0.00,VWS V13.01,2013-01-05 04:11:00,
2013-01-04 22:16:00,19.5,12.6,29.33,WSW,248,0.0,1.0,74,0.00,,---,0.00,VWS V13.01,2013-01-05 04:16:00,
2013-01-04 22:21:00,19.5,12.9,29.33,WSW,248,0.0,1.0,75,0.00,,---,0.00,VWS V13.01,2013-01-05 04:21:00,
2013-01-04 22:26:00,19.2,12.6,29.33,WSW,248,0.0,1.0,75,0.00,,---,0.00,VWS V13.01,2013-01-05 04:26:00,
2013-01-04 22:31:00,19.2,12.6,29.33,WSW,248,0.0,1.0,75,0.00,,---,0.00,VWS V13.01,2013-01-05 04:31:00,
2013-01-04 22:36:00,19.0,12.4,29.33,WSW,248,0.0,1.0,75,0.00,,---,0.00,VWS V13.01,2013-01-05 04:36:00,
2013-01-04 22:41:00,19.0,12.4,29.33,WSW,248,0.0,1.0,75,0.00,,---,0.00,VWS V13.01,2013-01-05 04:41:00,
2013-01-04 22:46:00,18.8,12.2,29.33,WSW,248,0.0,1.0,75,0.00,,---,0.00,VWS V13.01,2013-01-05 04:46:00,
2013-01-04 22:51:00,18.6,12.0,29.33,WSW,248,0.0,1.0,75,0.00,,---,0.00,VWS V13.01,2013-01-05 04:51:00,
2013-01-04 22:56:00,18.6,12.0,29.33,WSW,248,0.0,1.0,75,0.00,,---,0.00,VWS V13.01,2013-01-05 04:56:00,
2013-01-04 23:00:00,18.5,11.9,29.32,WSW,248,0.0,1.0,75,0.00,,---,0.00,VWS V13.01,2013-01-05 05:00:00,
2013-01-04 23:01:00,18.3,11.7,29.32,WSW,248,0.0,1.0,75,0.00,,---,0.00,VWS V13.01,2013-01-05 05:01:00,
2013-01-04 23:02:00,18.3,11.7,29.32,WSW,248,0.0,1.0,75,0.00,,---,0.00,VWS V13.01,2013-01-05 05:02:00,
2013-01-04 23:08:00,18.3,11.7,29.31,WSW,248,0.0,1.0,75,0.00,,---,0.00,VWS V13.01,2013-01-05 05:08:00,
2013-01-04 23:14:00,17.9,11.3,29.32,WSW,248,0.0,1.0,75,0.00,,---,0.00,VWS V13.01,2013-01-05 05:14:00,
2013-01-04 23:19:00,17.7,11.1,29.32,WSW,248,0.0,1.0,75,0.00,,---,0.00,VWS V13.01,2013-01-05 05:19:00,
2013-01-04 23:24:00,17.7,11.1,29.33,WSW,248,0.0,1.0,75,0.00,,---,0.00,VWS V13.01,2013-01-05 05:24:00,
2013-01-04 23:29:00,17.4,10.9,29.33,WSW,248,0.0,1.0,75,0.00,,---,0.00,VWS V13.01,2013-01-05 05:29:00,
2013-01-04 23:35:00,17.4,10.9,29.33,SW,225,0.0,1.0,75,0.00,,---,0.00,VWS V13.01,2013-01-05 05:35:00,
2013-01-04 23:40:00,17.2,10.6,29.33,South,180,0.0,7.6,75,0.00,,---,0.00,VWS V13.01,2013-01-05 05:40:00,
2013-01-04 23:45:00,17.2,10.9,29.33,South,180,3.4,4.4,76,0.00,,---,0.00,VWS V13.01,2013-01-05 05:45:00,
2013-01-04 23:50:00,16.8,10.6,29.33,South,180,0.0,1.0,76,0.00,,---,0.00,VWS V13.01,2013-01-05 05:50:00,
2013-01-04 23:55:00,16.8,10.6,29.32,South,180,0.0,1.0,76,0.00,,---,0.00,VWS V13.01,2013-01-05 05:55:00,
2013-01-04 23:59:00,16.8,10.6,29.32,South,180,0.0,1.0,76,0.00,,---,0.00,VWS V13.01,2013-01-05 05:59:00,